sensor_id;sensor_type;location;lat;lon;timestamp;temperature;humidity
21255;DHT22;10785;50.674;17.954;2023-04-04T00:01:04;-0.80;99.90
21255;DHT22;10785;50.674;17.954;2023-04-04T00:03:33;-0.80;99.90
21255;DHT22;10785;50.674;17.954;2023-04-04T00:06:02;-0.80;99.90
21255;DHT22;10785;50.674;17.954;2023-04-04T00:08:30;-0.80;99.90
21255;DHT22;10785;50.674;17.954;2023-04-04T00:11:00;-0.80;99.90
21255;DHT22;10785;50.674;17.954;2023-04-04T00:13:29;-0.80;99.90
21255;DHT22;10785;50.674;17.954;2023-04-04T00:15:58;-0.80;99.90
21255;DHT22;10785;50.674;17.954;2023-04-04T00:18:26;-0.90;99.90
21255;DHT22;10785;50.674;17.954;2023-04-04T00:20:55;-0.80;99.90
21255;DHT22;10785;50.674;17.954;2023-04-04T00:23:24;-0.90;99.90
21255;DHT22;10785;50.674;17.954;2023-04-04T00:25:53;-0.90;99.90
21255;DHT22;10785;50.674;17.954;2023-04-04T00:28:23;-0.90;99.90
21255;DHT22;10785;50.674;17.954;2023-04-04T00:30:53;-0.90;99.90
21255;DHT22;10785;50.674;17.954;2023-04-04T00:33:22;-0.90;99.90
21255;DHT22;10785;50.674;17.954;2023-04-04T00:35:51;-0.90;99.90
21255;DHT22;10785;50.674;17.954;2023-04-04T00:38:19;-1.00;99.90
21255;DHT22;10785;50.674;17.954;2023-04-04T00:40:49;-1.00;99.90
21255;DHT22;10785;50.674;17.954;2023-04-04T00:43:18;-1.00;99.90
21255;DHT22;10785;50.674;17.954;2023-04-04T00:45:49;-1.00;99.90
21255;DHT22;10785;50.674;17.954;2023-04-04T00:48:19;-1.00;99.90
21255;DHT22;10785;50.674;17.954;2023-04-04T00:50:50;-1.00;99.90
21255;DHT22;10785;50.674;17.954;2023-04-04T00:53:19;-1.00;99.90
21255;DHT22;10785;50.674;17.954;2023-04-04T00:55:47;-1.00;99.90
21255;DHT22;10785;50.674;17.954;2023-04-04T00:58:16;-1.10;99.90
21255;DHT22;10785;50.674;17.954;2023-04-04T01:00:45;-1.10;99.90
21255;DHT22;10785;50.674;17.954;2023-04-04T01:03:16;-1.10;99.90
21255;DHT22;10785;50.674;17.954;2023-04-04T01:05:45;-1.20;99.90
21255;DHT22;10785;50.674;17.954;2023-04-04T01:08:17;-1.10;99.90
21255;DHT22;10785;50.674;17.954;2023-04-04T01:10:49;-1.20;99.90
21255;DHT22;10785;50.674;17.954;2023-04-04T01:13:18;-1.20;99.90
21255;DHT22;10785;50.674;17.954;2023-04-04T01:15:49;-1.20;99.90
21255;DHT22;10785;50.674;17.954;2023-04-04T01:18:21;-1.10;99.90
21255;DHT22;10785;50.674;17.954;2023-04-04T01:20:55;-1.20;99.90
21255;DHT22;10785;50.674;17.954;2023-04-04T01:23:35;-1.20;99.90
21255;DHT22;10785;50.674;17.954;2023-04-04T01:26:12;-1.20;99.90
21255;DHT22;10785;50.674;17.954;2023-04-04T01:28:41;-1.20;99.90
21255;DHT22;10785;50.674;17.954;2023-04-04T01:31:13;-1.20;99.90
21255;DHT22;10785;50.674;17.954;2023-04-04T01:33:45;-1.10;99.90
21255;DHT22;10785;50.674;17.954;2023-04-04T01:36:23;-1.10;99.90
21255;DHT22;10785;50.674;17.954;2023-04-04T01:38:57;-1.10;99.90
21255;DHT22;10785;50.674;17.954;2023-04-04T01:41:32;-1.10;99.90
21255;DHT22;10785;50.674;17.954;2023-04-04T01:44:02;-1.10;99.90
21255;DHT22;10785;50.674;17.954;2023-04-04T01:46:31;-1.10;99.90
21255;DHT22;10785;50.674;17.954;2023-04-04T01:49:00;-1.10;99.90
21255;DHT22;10785;50.674;17.954;2023-04-04T01:51:33;-1.20;99.90
21255;DHT22;10785;50.674;17.954;2023-04-04T01:54:02;-1.10;99.90
21255;DHT22;10785;50.674;17.954;2023-04-04T01:56:32;-1.10;99.90
21255;DHT22;10785;50.674;17.954;2023-04-04T01:59:01;-1.20;99.90
21255;DHT22;10785;50.674;17.954;2023-04-04T02:01:30;-1.20;99.90
21255;DHT22;10785;50.674;17.954;2023-04-04T02:03:59;-1.20;99.90
21255;DHT22;10785;50.674;17.954;2023-04-04T02:06:28;-1.20;99.90
21255;DHT22;10785;50.674;17.954;2023-04-04T02:08:57;-1.20;99.90
21255;DHT22;10785;50.674;17.954;2023-04-04T02:11:27;-1.20;99.90
21255;DHT22;10785;50.674;17.954;2023-04-04T02:13:57;-1.20;99.90
21255;DHT22;10785;50.674;17.954;2023-04-04T02:16:46;-1.20;99.90
21255;DHT22;10785;50.674;17.954;2023-04-04T02:19:14;-1.20;99.90
21255;DHT22;10785;50.674;17.954;2023-04-04T02:21:43;-1.20;99.90
21255;DHT22;10785;50.674;17.954;2023-04-04T02:24:12;-1.20;99.90
21255;DHT22;10785;50.674;17.954;2023-04-04T02:26:41;-1.20;99.90
21255;DHT22;10785;50.674;17.954;2023-04-04T02:29:11;-1.20;99.90
21255;DHT22;10785;50.674;17.954;2023-04-04T02:31:40;-1.30;99.90
21255;DHT22;10785;50.674;17.954;2023-04-04T02:34:08;-1.20;99.90
21255;DHT22;10785;50.674;17.954;2023-04-04T02:36:37;-1.30;99.90
21255;DHT22;10785;50.674;17.954;2023-04-04T02:39:06;-1.30;99.90
21255;DHT22;10785;50.674;17.954;2023-04-04T02:41:37;-1.30;99.90
21255;DHT22;10785;50.674;17.954;2023-04-04T02:44:05;-1.30;99.90
21255;DHT22;10785;50.674;17.954;2023-04-04T02:46:37;-1.30;99.90
21255;DHT22;10785;50.674;17.954;2023-04-04T02:49:09;-1.30;99.90
21255;DHT22;10785;50.674;17.954;2023-04-04T02:51:43;-1.30;99.90
21255;DHT22;10785;50.674;17.954;2023-04-04T02:54:12;-1.30;99.90
21255;DHT22;10785;50.674;17.954;2023-04-04T02:56:44;-1.30;99.90
21255;DHT22;10785;50.674;17.954;2023-04-04T02:59:13;-1.30;99.90
21255;DHT22;10785;50.674;17.954;2023-04-04T03:01:43;-1.30;99.90
21255;DHT22;10785;50.674;17.954;2023-04-04T03:04:12;-1.30;99.90
21255;DHT22;10785;50.674;17.954;2023-04-04T03:06:43;-1.30;99.90
21255;DHT22;10785;50.674;17.954;2023-04-04T03:09:14;-1.30;99.90
21255;DHT22;10785;50.674;17.954;2023-04-04T03:11:43;-1.30;99.90
21255;DHT22;10785;50.674;17.954;2023-04-04T03:14:12;-1.30;99.90
21255;DHT22;10785;50.674;17.954;2023-04-04T03:16:43;-1.40;99.90
21255;DHT22;10785;50.674;17.954;2023-04-04T03:19:11;-1.40;99.90
21255;DHT22;10785;50.674;17.954;2023-04-04T03:21:41;-1.40;99.90
21255;DHT22;10785;50.674;17.954;2023-04-04T03:24:09;-1.40;99.90
21255;DHT22;10785;50.674;17.954;2023-04-04T03:26:38;-1.40;99.90
21255;DHT22;10785;50.674;17.954;2023-04-04T03:29:10;-1.40;99.90
21255;DHT22;10785;50.674;17.954;2023-04-04T03:31:39;-1.50;99.90
21255;DHT22;10785;50.674;17.954;2023-04-04T03:34:09;-1.50;99.90
21255;DHT22;10785;50.674;17.954;2023-04-04T03:36:38;-1.50;99.90
21255;DHT22;10785;50.674;17.954;2023-04-04T03:39:07;-1.50;99.90
21255;DHT22;10785;50.674;17.954;2023-04-04T03:41:35;-1.50;99.90
21255;DHT22;10785;50.674;17.954;2023-04-04T03:44:05;-1.60;99.90
21255;DHT22;10785;50.674;17.954;2023-04-04T03:46:34;-1.60;99.90
21255;DHT22;10785;50.674;17.954;2023-04-04T03:49:03;-1.60;99.90
21255;DHT22;10785;50.674;17.954;2023-04-04T03:51:33;-1.60;99.90
21255;DHT22;10785;50.674;17.954;2023-04-04T03:54:03;-1.70;99.90
21255;DHT22;10785;50.674;17.954;2023-04-04T03:56:32;-1.70;99.90
21255;DHT22;10785;50.674;17.954;2023-04-04T03:59:04;-1.70;99.90
21255;DHT22;10785;50.674;17.954;2023-04-04T04:01:33;-1.80;99.90
21255;DHT22;10785;50.674;17.954;2023-04-04T04:04:02;-1.70;99.90
21255;DHT22;10785;50.674;17.954;2023-04-04T04:06:30;-1.80;99.90
21255;DHT22;10785;50.674;17.954;2023-04-04T04:09:01;-1.70;99.90
21255;DHT22;10785;50.674;17.954;2023-04-04T04:11:30;-1.70;99.90
21255;DHT22;10785;50.674;17.954;2023-04-04T04:13:59;-1.70;99.90
21255;DHT22;10785;50.674;17.954;2023-04-04T04:16:28;-1.70;99.90
21255;DHT22;10785;50.674;17.954;2023-04-04T04:18:58;-1.70;99.90
21255;DHT22;10785;50.674;17.954;2023-04-04T04:21:38;-1.70;99.90
21255;DHT22;10785;50.674;17.954;2023-04-04T04:24:08;-1.70;99.90
21255;DHT22;10785;50.674;17.954;2023-04-04T04:26:37;-1.60;99.90
21255;DHT22;10785;50.674;17.954;2023-04-04T04:29:06;-1.60;99.90
21255;DHT22;10785;50.674;17.954;2023-04-04T04:31:36;-1.50;99.90
21255;DHT22;10785;50.674;17.954;2023-04-04T04:34:06;-1.40;99.90
21255;DHT22;10785;50.674;17.954;2023-04-04T04:36:37;-1.40;99.90
21255;DHT22;10785;50.674;17.954;2023-04-04T04:39:26;-1.20;99.90
21255;DHT22;10785;50.674;17.954;2023-04-04T04:42:13;-0.70;99.90
21255;DHT22;10785;50.674;17.954;2023-04-04T04:44:49;-0.30;99.90
21255;DHT22;10785;50.674;17.954;2023-04-04T04:47:18;0.00;99.90
21255;DHT22;10785;50.674;17.954;2023-04-04T04:49:47;-0.20;99.90
21255;DHT22;10785;50.674;17.954;2023-04-04T04:52:21;-0.50;99.90
21255;DHT22;10785;50.674;17.954;2023-04-04T04:54:51;-0.70;99.90
21255;DHT22;10785;50.674;17.954;2023-04-04T04:57:23;-0.80;99.90
21255;DHT22;10785;50.674;17.954;2023-04-04T04:59:54;-0.90;99.90
21255;DHT22;10785;50.674;17.954;2023-04-04T05:02:25;-0.90;99.90
21255;DHT22;10785;50.674;17.954;2023-04-04T05:04:54;-1.00;99.90
21255;DHT22;10785;50.674;17.954;2023-04-04T05:07:24;-1.00;99.90
21255;DHT22;10785;50.674;17.954;2023-04-04T05:09:55;-1.00;99.90
21255;DHT22;10785;50.674;17.954;2023-04-04T05:12:23;-0.90;99.90
21255;DHT22;10785;50.674;17.954;2023-04-04T05:14:53;-1.00;99.90
21255;DHT22;10785;50.674;17.954;2023-04-04T05:17:24;-1.00;99.90
21255;DHT22;10785;50.674;17.954;2023-04-04T05:19:56;-0.90;99.90
21255;DHT22;10785;50.674;17.954;2023-04-04T05:22:25;-0.90;99.90
21255;DHT22;10785;50.674;17.954;2023-04-04T05:24:57;-0.80;99.90
21255;DHT22;10785;50.674;17.954;2023-04-04T05:27:25;-0.80;99.90
21255;DHT22;10785;50.674;17.954;2023-04-04T05:29:58;-0.70;99.90
21255;DHT22;10785;50.674;17.954;2023-04-04T05:32:35;-0.80;99.90
21255;DHT22;10785;50.674;17.954;2023-04-04T05:35:12;-0.80;99.90
21255;DHT22;10785;50.674;17.954;2023-04-04T05:37:41;-0.70;99.90
21255;DHT22;10785;50.674;17.954;2023-04-04T05:40:16;-0.70;99.90
21255;DHT22;10785;50.674;17.954;2023-04-04T05:42:54;-0.60;99.90
21255;DHT22;10785;50.674;17.954;2023-04-04T05:45:26;-0.60;99.90
21255;DHT22;10785;50.674;17.954;2023-04-04T05:47:55;-0.50;99.90
21255;DHT22;10785;50.674;17.954;2023-04-04T05:50:25;-0.50;99.90
21255;DHT22;10785;50.674;17.954;2023-04-04T05:53:00;-0.50;99.90
21255;DHT22;10785;50.674;17.954;2023-04-04T05:55:30;-0.40;99.90
21255;DHT22;10785;50.674;17.954;2023-04-04T05:57:59;-0.40;99.90
21255;DHT22;10785;50.674;17.954;2023-04-04T06:00:43;-0.40;99.30
21255;DHT22;10785;50.674;17.954;2023-04-04T06:03:12;-0.30;98.40
21255;DHT22;10785;50.674;17.954;2023-04-04T06:05:42;-0.20;96.30
21255;DHT22;10785;50.674;17.954;2023-04-04T06:08:11;-0.20;95.00
21255;DHT22;10785;50.674;17.954;2023-04-04T06:10:41;-0.10;92.40
21255;DHT22;10785;50.674;17.954;2023-04-04T06:13:10;0.10;91.20
21255;DHT22;10785;50.674;17.954;2023-04-04T06:15:41;0.10;84.40
21255;DHT22;10785;50.674;17.954;2023-04-04T06:18:11;0.20;79.90
21255;DHT22;10785;50.674;17.954;2023-04-04T06:20:39;0.20;72.20
21255;DHT22;10785;50.674;17.954;2023-04-04T06:23:08;0.30;67.80
21255;DHT22;10785;50.674;17.954;2023-04-04T06:25:42;0.30;65.50
21255;DHT22;10785;50.674;17.954;2023-04-04T06:28:13;0.30;61.90
21255;DHT22;10785;50.674;17.954;2023-04-04T06:30:45;0.30;58.30
21255;DHT22;10785;50.674;17.954;2023-04-04T06:33:18;0.30;55.30
21255;DHT22;10785;50.674;17.954;2023-04-04T06:35:48;0.40;56.50
21255;DHT22;10785;50.674;17.954;2023-04-04T06:38:18;0.40;52.90
21255;DHT22;10785;50.674;17.954;2023-04-04T06:40:48;0.50;51.20
21255;DHT22;10785;50.674;17.954;2023-04-04T06:43:16;0.70;50.90
21255;DHT22;10785;50.674;17.954;2023-04-04T06:45:45;0.60;52.30
21255;DHT22;10785;50.674;17.954;2023-04-04T06:48:14;0.70;50.30
21255;DHT22;10785;50.674;17.954;2023-04-04T06:50:43;0.70;47.40
21255;DHT22;10785;50.674;17.954;2023-04-04T06:53:15;0.70;42.70
21255;DHT22;10785;50.674;17.954;2023-04-04T06:55:43;0.70;43.80
21255;DHT22;10785;50.674;17.954;2023-04-04T06:58:13;0.70;37.60
21255;DHT22;10785;50.674;17.954;2023-04-04T07:00:42;0.70;37.00
21255;DHT22;10785;50.674;17.954;2023-04-04T07:03:11;0.70;36.20
21255;DHT22;10785;50.674;17.954;2023-04-04T07:05:39;0.60;36.00
21255;DHT22;10785;50.674;17.954;2023-04-04T07:08:08;0.70;38.60
21255;DHT22;10785;50.674;17.954;2023-04-04T07:10:37;0.80;38.40
21255;DHT22;10785;50.674;17.954;2023-04-04T07:13:07;0.70;33.90
21255;DHT22;10785;50.674;17.954;2023-04-04T07:15:37;0.60;32.70
21255;DHT22;10785;50.674;17.954;2023-04-04T07:18:06;0.70;35.70
21255;DHT22;10785;50.674;17.954;2023-04-04T07:20:35;0.70;34.70
21255;DHT22;10785;50.674;17.954;2023-04-04T07:23:04;0.60;29.50
21255;DHT22;10785;50.674;17.954;2023-04-04T07:25:32;0.60;27.90
21255;DHT22;10785;50.674;17.954;2023-04-04T07:28:01;0.50;28.10
21255;DHT22;10785;50.674;17.954;2023-04-04T07:30:40;0.60;31.80
21255;DHT22;10785;50.674;17.954;2023-04-04T07:33:09;0.80;30.00
21255;DHT22;10785;50.674;17.954;2023-04-04T07:35:38;0.80;26.30
21255;DHT22;10785;50.674;17.954;2023-04-04T07:38:06;0.70;27.10
21255;DHT22;10785;50.674;17.954;2023-04-04T07:40:35;0.80;25.90
21255;DHT22;10785;50.674;17.954;2023-04-04T07:43:13;0.80;27.40
21255;DHT22;10785;50.674;17.954;2023-04-04T07:45:42;0.90;28.00
21255;DHT22;10785;50.674;17.954;2023-04-04T07:48:11;1.10;28.90
21255;DHT22;10785;50.674;17.954;2023-04-04T07:50:40;1.20;27.20
21255;DHT22;10785;50.674;17.954;2023-04-04T07:53:08;1.20;28.30
21255;DHT22;10785;50.674;17.954;2023-04-04T07:55:37;1.20;24.30
21255;DHT22;10785;50.674;17.954;2023-04-04T07:58:06;1.30;24.90
21255;DHT22;10785;50.674;17.954;2023-04-04T08:00:35;1.30;23.90
21255;DHT22;10785;50.674;17.954;2023-04-04T08:03:05;1.30;23.60
21255;DHT22;10785;50.674;17.954;2023-04-04T08:05:34;1.40;22.00
21255;DHT22;10785;50.674;17.954;2023-04-04T08:08:02;1.40;24.20
21255;DHT22;10785;50.674;17.954;2023-04-04T08:10:31;1.20;23.10
21255;DHT22;10785;50.674;17.954;2023-04-04T08:13:00;1.20;22.60
21255;DHT22;10785;50.674;17.954;2023-04-04T08:15:30;1.20;22.50
21255;DHT22;10785;50.674;17.954;2023-04-04T08:17:59;1.20;23.10
21255;DHT22;10785;50.674;17.954;2023-04-04T08:20:29;1.30;22.10
21255;DHT22;10785;50.674;17.954;2023-04-04T08:22:58;1.30;20.80
21255;DHT22;10785;50.674;17.954;2023-04-04T08:25:27;1.20;21.70
21255;DHT22;10785;50.674;17.954;2023-04-04T08:27:55;1.20;23.00
21255;DHT22;10785;50.674;17.954;2023-04-04T08:30:24;1.20;24.70
21255;DHT22;10785;50.674;17.954;2023-04-04T08:32:52;1.30;23.90
21255;DHT22;10785;50.674;17.954;2023-04-04T08:35:21;1.30;24.10
21255;DHT22;10785;50.674;17.954;2023-04-04T08:37:51;1.40;23.80
21255;DHT22;10785;50.674;17.954;2023-04-04T08:40:20;1.50;23.20
21255;DHT22;10785;50.674;17.954;2023-04-04T08:42:50;1.30;21.70
21255;DHT22;10785;50.674;17.954;2023-04-04T08:45:20;1.20;21.90
21255;DHT22;10785;50.674;17.954;2023-04-04T08:47:51;1.30;23.70
21255;DHT22;10785;50.674;17.954;2023-04-04T08:50:21;1.30;22.90
21255;DHT22;10785;50.674;17.954;2023-04-04T08:52:53;1.40;22.10
21255;DHT22;10785;50.674;17.954;2023-04-04T08:55:21;1.50;23.10
21255;DHT22;10785;50.674;17.954;2023-04-04T08:57:50;1.60;22.80
21255;DHT22;10785;50.674;17.954;2023-04-04T09:00:19;1.60;22.80
21255;DHT22;10785;50.674;17.954;2023-04-04T09:02:54;1.60;17.10
21255;DHT22;10785;50.674;17.954;2023-04-04T09:05:24;1.40;17.10
21255;DHT22;10785;50.674;17.954;2023-04-04T09:07:55;1.40;19.30
21255;DHT22;10785;50.674;17.954;2023-04-04T09:10:23;1.50;19.70
21255;DHT22;10785;50.674;17.954;2023-04-04T09:12:54;1.50;18.60
21255;DHT22;10785;50.674;17.954;2023-04-04T09:15:44;1.60;17.50
21255;DHT22;10785;50.674;17.954;2023-04-04T09:18:14;1.60;18.60
21255;DHT22;10785;50.674;17.954;2023-04-04T09:20:43;1.60;19.40
21255;DHT22;10785;50.674;17.954;2023-04-04T09:23:15;1.70;19.80
21255;DHT22;10785;50.674;17.954;2023-04-04T09:25:46;1.80;19.70
21255;DHT22;10785;50.674;17.954;2023-04-04T09:28:19;1.80;21.10
21255;DHT22;10785;50.674;17.954;2023-04-04T09:30:48;1.80;20.00
21255;DHT22;10785;50.674;17.954;2023-04-04T09:33:19;1.90;18.20
21255;DHT22;10785;50.674;17.954;2023-04-04T09:35:50;2.10;17.30
21255;DHT22;10785;50.674;17.954;2023-04-04T09:38:22;2.30;15.30
21255;DHT22;10785;50.674;17.954;2023-04-04T09:40:51;2.30;14.30
21255;DHT22;10785;50.674;17.954;2023-04-04T09:43:23;2.30;13.40
21255;DHT22;10785;50.674;17.954;2023-04-04T09:45:53;2.00;12.60
21255;DHT22;10785;50.674;17.954;2023-04-04T09:48:25;2.10;12.00
21255;DHT22;10785;50.674;17.954;2023-04-04T09:50:56;2.20;13.40
21255;DHT22;10785;50.674;17.954;2023-04-04T09:53:27;2.20;13.10
21255;DHT22;10785;50.674;17.954;2023-04-04T09:55:56;2.20;12.70
21255;DHT22;10785;50.674;17.954;2023-04-04T09:58:27;2.10;15.20
21255;DHT22;10785;50.674;17.954;2023-04-04T10:00:59;2.00;15.70
21255;DHT22;10785;50.674;17.954;2023-04-04T10:03:29;2.00;15.20
21255;DHT22;10785;50.674;17.954;2023-04-04T10:05:59;2.00;16.10
21255;DHT22;10785;50.674;17.954;2023-04-04T10:08:29;2.00;15.50
21255;DHT22;10785;50.674;17.954;2023-04-04T10:10:59;2.10;14.80
21255;DHT22;10785;50.674;17.954;2023-04-04T10:13:39;1.80;15.70
21255;DHT22;10785;50.674;17.954;2023-04-04T10:16:10;1.50;15.10
21255;DHT22;10785;50.674;17.954;2023-04-04T10:18:39;1.70;15.50
21255;DHT22;10785;50.674;17.954;2023-04-04T10:21:08;1.70;15.40
21255;DHT22;10785;50.674;17.954;2023-04-04T10:23:44;1.70;15.90
21255;DHT22;10785;50.674;17.954;2023-04-04T10:26:14;2.00;16.80
21255;DHT22;10785;50.674;17.954;2023-04-04T10:28:42;2.20;16.50
21255;DHT22;10785;50.674;17.954;2023-04-04T10:31:22;2.10;14.20
21255;DHT22;10785;50.674;17.954;2023-04-04T10:33:59;2.10;13.20
21255;DHT22;10785;50.674;17.954;2023-04-04T10:36:37;2.00;12.00
21255;DHT22;10785;50.674;17.954;2023-04-04T10:39:13;2.00;11.90
21255;DHT22;10785;50.674;17.954;2023-04-04T10:41:42;2.00;11.70
21255;DHT22;10785;50.674;17.954;2023-04-04T10:57:05;2.70;13.00
21255;DHT22;10785;50.674;17.954;2023-04-04T10:59:54;2.60;13.20
21255;DHT22;10785;50.674;17.954;2023-04-04T11:02:47;2.60;12.20
21255;DHT22;10785;50.674;17.954;2023-04-04T11:05:19;2.30;13.20
21255;DHT22;10785;50.674;17.954;2023-04-04T11:07:53;2.20;13.90
21255;DHT22;10785;50.674;17.954;2023-04-04T11:10:35;2.20;13.30
21255;DHT22;10785;50.674;17.954;2023-04-04T11:13:10;2.30;14.30
21255;DHT22;10785;50.674;17.954;2023-04-04T11:15:45;2.30;14.20
21255;DHT22;10785;50.674;17.954;2023-04-04T11:18:15;2.30;13.60
21255;DHT22;10785;50.674;17.954;2023-04-04T11:21:00;2.30;13.00
21255;DHT22;10785;50.674;17.954;2023-04-04T11:24:13;2.30;13.10
21255;DHT22;10785;50.674;17.954;2023-04-04T11:26:45;2.30;13.20
21255;DHT22;10785;50.674;17.954;2023-04-04T11:29:48;2.50;14.20
21255;DHT22;10785;50.674;17.954;2023-04-04T11:32:32;2.50;13.40
21255;DHT22;10785;50.674;17.954;2023-04-04T11:35:04;2.60;12.70
21255;DHT22;10785;50.674;17.954;2023-04-04T11:37:42;2.60;10.90
21255;DHT22;10785;50.674;17.954;2023-04-04T11:40:11;2.70;11.00
21255;DHT22;10785;50.674;17.954;2023-04-04T11:42:40;2.60;9.10
21255;DHT22;10785;50.674;17.954;2023-04-04T11:45:18;2.80;9.90
21255;DHT22;10785;50.674;17.954;2023-04-04T11:47:47;2.60;8.00
21255;DHT22;10785;50.674;17.954;2023-04-04T11:50:17;2.50;7.70
21255;DHT22;10785;50.674;17.954;2023-04-04T11:52:47;2.50;9.80
21255;DHT22;10785;50.674;17.954;2023-04-04T11:55:16;2.40;9.50
21255;DHT22;10785;50.674;17.954;2023-04-04T11:57:46;2.40;10.10
21255;DHT22;10785;50.674;17.954;2023-04-04T12:00:29;2.40;9.20
21255;DHT22;10785;50.674;17.954;2023-04-04T12:02:58;2.50;9.80
21255;DHT22;10785;50.674;17.954;2023-04-04T12:05:27;2.40;9.50
21255;DHT22;10785;50.674;17.954;2023-04-04T12:07:58;2.50;11.80
21255;DHT22;10785;50.674;17.954;2023-04-04T12:10:29;2.30;10.50
21255;DHT22;10785;50.674;17.954;2023-04-04T12:12:59;2.20;11.40
21255;DHT22;10785;50.674;17.954;2023-04-04T12:15:30;2.20;12.00
21255;DHT22;10785;50.674;17.954;2023-04-04T12:17:59;2.10;10.90
21255;DHT22;10785;50.674;17.954;2023-04-04T12:20:28;2.00;10.70
21255;DHT22;10785;50.674;17.954;2023-04-04T12:22:58;2.10;10.90
21255;DHT22;10785;50.674;17.954;2023-04-04T12:25:27;2.00;10.70
21255;DHT22;10785;50.674;17.954;2023-04-04T12:28:01;2.00;10.30
21255;DHT22;10785;50.674;17.954;2023-04-04T12:30:32;2.10;8.80
21255;DHT22;10785;50.674;17.954;2023-04-04T12:33:01;2.30;8.50
21255;DHT22;10785;50.674;17.954;2023-04-04T12:35:30;2.50;8.30
21255;DHT22;10785;50.674;17.954;2023-04-04T12:38:04;2.40;8.60
21255;DHT22;10785;50.674;17.954;2023-04-04T12:40:35;2.50;8.50
21255;DHT22;10785;50.674;17.954;2023-04-04T12:43:05;2.50;7.90
21255;DHT22;10785;50.674;17.954;2023-04-04T12:45:39;2.60;7.10
21255;DHT22;10785;50.674;17.954;2023-04-04T12:48:10;2.70;8.20
21255;DHT22;10785;50.674;17.954;2023-04-04T12:50:51;2.80;6.60
21255;DHT22;10785;50.674;17.954;2023-04-04T12:53:20;2.90;6.10
21255;DHT22;10785;50.674;17.954;2023-04-04T12:55:53;2.90;6.10
21255;DHT22;10785;50.674;17.954;2023-04-04T12:58:23;2.90;5.80
21255;DHT22;10785;50.674;17.954;2023-04-04T13:00:54;2.90;6.70
21255;DHT22;10785;50.674;17.954;2023-04-04T13:03:26;2.90;6.50
21255;DHT22;10785;50.674;17.954;2023-04-04T13:05:57;3.00;6.90
21255;DHT22;10785;50.674;17.954;2023-04-04T13:08:26;3.00;6.50
21255;DHT22;10785;50.674;17.954;2023-04-04T13:10:57;3.10;6.00
21255;DHT22;10785;50.674;17.954;2023-04-04T13:13:35;2.80;5.40
21255;DHT22;10785;50.674;17.954;2023-04-04T13:16:07;2.90;5.30
21255;DHT22;10785;50.674;17.954;2023-04-04T13:18:37;2.80;4.80
21255;DHT22;10785;50.674;17.954;2023-04-04T13:21:08;2.70;5.60
21255;DHT22;10785;50.674;17.954;2023-04-04T13:23:38;2.90;5.70
21255;DHT22;10785;50.674;17.954;2023-04-04T13:26:09;2.90;5.40
21255;DHT22;10785;50.674;17.954;2023-04-04T13:28:38;2.70;5.70
21255;DHT22;10785;50.674;17.954;2023-04-04T13:31:08;2.70;6.20
21255;DHT22;10785;50.674;17.954;2023-04-04T13:33:38;2.80;7.00
21255;DHT22;10785;50.674;17.954;2023-04-04T13:36:07;2.90;6.50
21255;DHT22;10785;50.674;17.954;2023-04-04T13:38:35;2.70;6.40
21255;DHT22;10785;50.674;17.954;2023-04-04T13:41:04;2.60;7.00
21255;DHT22;10785;50.674;17.954;2023-04-04T13:43:33;2.60;8.10
21255;DHT22;10785;50.674;17.954;2023-04-04T13:46:01;2.60;8.40
21255;DHT22;10785;50.674;17.954;2023-04-04T13:48:31;2.60;9.10
21255;DHT22;10785;50.674;17.954;2023-04-04T13:51:00;2.70;10.10
21255;DHT22;10785;50.674;17.954;2023-04-04T13:53:29;2.70;8.80
21255;DHT22;10785;50.674;17.954;2023-04-04T13:55:57;2.70;8.30
21255;DHT22;10785;50.674;17.954;2023-04-04T13:58:44;2.60;8.50
21255;DHT22;10785;50.674;17.954;2023-04-04T14:01:12;2.50;8.70
21255;DHT22;10785;50.674;17.954;2023-04-04T14:03:50;2.50;10.30
21255;DHT22;10785;50.674;17.954;2023-04-04T14:06:18;2.50;10.80
21255;DHT22;10785;50.674;17.954;2023-04-04T14:08:47;2.50;10.50
21255;DHT22;10785;50.674;17.954;2023-04-04T14:11:16;2.60;11.60
21255;DHT22;10785;50.674;17.954;2023-04-04T14:13:44;2.60;10.60
21255;DHT22;10785;50.674;17.954;2023-04-04T14:16:13;2.60;9.10
21255;DHT22;10785;50.674;17.954;2023-04-04T14:18:42;2.60;8.10
21255;DHT22;10785;50.674;17.954;2023-04-04T14:21:12;2.60;9.50
21255;DHT22;10785;50.674;17.954;2023-04-04T14:23:41;2.70;10.00
21255;DHT22;10785;50.674;17.954;2023-04-04T14:26:09;2.60;8.60
21255;DHT22;10785;50.674;17.954;2023-04-04T14:28:38;2.30;9.30
21255;DHT22;10785;50.674;17.954;2023-04-04T14:31:32;2.40;11.00
21255;DHT22;10785;50.674;17.954;2023-04-04T14:34:02;2.30;10.50
21255;DHT22;10785;50.674;17.954;2023-04-04T14:36:33;2.40;11.00
21255;DHT22;10785;50.674;17.954;2023-04-04T14:39:02;2.40;10.00
21255;DHT22;10785;50.674;17.954;2023-04-04T14:41:31;2.40;9.60
21255;DHT22;10785;50.674;17.954;2023-04-04T14:43:59;2.50;10.50
21255;DHT22;10785;50.674;17.954;2023-04-04T14:46:28;2.60;10.60
21255;DHT22;10785;50.674;17.954;2023-04-04T14:48:57;2.70;10.90
21255;DHT22;10785;50.674;17.954;2023-04-04T14:51:26;2.60;11.10
21255;DHT22;10785;50.674;17.954;2023-04-04T14:53:56;2.60;10.80
21255;DHT22;10785;50.674;17.954;2023-04-04T14:56:25;2.50;9.80
21255;DHT22;10785;50.674;17.954;2023-04-04T14:58:53;2.40;9.20
21255;DHT22;10785;50.674;17.954;2023-04-04T15:01:23;2.30;8.50
21255;DHT22;10785;50.674;17.954;2023-04-04T15:03:51;2.30;8.70
21255;DHT22;10785;50.674;17.954;2023-04-04T15:06:21;2.40;8.60
21255;DHT22;10785;50.674;17.954;2023-04-04T15:08:50;2.40;8.20
21255;DHT22;10785;50.674;17.954;2023-04-04T15:11:20;2.50;7.80
21255;DHT22;10785;50.674;17.954;2023-04-04T15:13:49;2.50;6.20
21255;DHT22;10785;50.674;17.954;2023-04-04T15:16:17;2.70;7.20
21255;DHT22;10785;50.674;17.954;2023-04-04T15:18:46;2.80;5.30
21255;DHT22;10785;50.674;17.954;2023-04-04T15:21:15;2.80;6.00
21255;DHT22;10785;50.674;17.954;2023-04-04T15:23:43;2.70;5.20
21255;DHT22;10785;50.674;17.954;2023-04-04T15:26:12;2.60;5.70
21255;DHT22;10785;50.674;17.954;2023-04-04T15:28:42;2.60;5.60
21255;DHT22;10785;50.674;17.954;2023-04-04T15:31:11;2.70;6.00
21255;DHT22;10785;50.674;17.954;2023-04-04T15:33:40;2.60;5.00
21255;DHT22;10785;50.674;17.954;2023-04-04T15:36:09;2.60;5.60
21255;DHT22;10785;50.674;17.954;2023-04-04T15:38:38;2.70;6.40
21255;DHT22;10785;50.674;17.954;2023-04-04T15:41:08;2.60;5.60
21255;DHT22;10785;50.674;17.954;2023-04-04T15:43:36;2.60;5.60
21255;DHT22;10785;50.674;17.954;2023-04-04T15:46:06;2.60;6.00
21255;DHT22;10785;50.674;17.954;2023-04-04T15:48:35;2.60;6.90
21255;DHT22;10785;50.674;17.954;2023-04-04T15:51:05;2.60;5.90
21255;DHT22;10785;50.674;17.954;2023-04-04T15:53:33;2.60;6.40
21255;DHT22;10785;50.674;17.954;2023-04-04T15:56:02;2.50;6.90
21255;DHT22;10785;50.674;17.954;2023-04-04T15:58:31;2.50;7.60
21255;DHT22;10785;50.674;17.954;2023-04-04T16:00:59;2.40;8.50
21255;DHT22;10785;50.674;17.954;2023-04-04T16:03:29;2.40;8.60